Detall de PIREP

Printer-friendly versionPDF version

[2012/03/06 09:29:00]
Flight IATA:CT3223
Pilot Number:011
Company ICAO:CAT
Aircraft Type:F28/A
PAX:85
Departing Airport: LEPA
Destination Airport: LPPT
Alternate Airport:LEMG
Online: VATSIM
Route:TURIA UN733 CJN UN975 ELVAR DCT ESP
Flight Level:F310
No Slew and time accel
No pause
Crash detect
Detect pilot in Cockpit between each 30 and 45 minutes
09:29 Zero fuel Weight: 60158 Lbs, Fuel Weight: 12100 Lbs
09:29 VATSIM:LEPA 060900Z 00000KT 9999 FEW016 SCT025 09/06 Q1024 NOSIG
09:29 VATSIM:LPPT 060900Z 17003KT 090V230 9999 FEW020 12/08 Q1029
09:32 Parking Brakes off
09:45 Take-off
09:45 Take off Weight: 71665 Lbs
09:45 Wind: 202º @ 001 Knots Heading: 238º
09:45 POS N39º 33´ 20´´ E002º 43´ 43´´
09:46 Gear Up: 161 Knots
09:46 Flaps:2 at 161 Knots
09:46 Flaps:1 at 193 Knots
09:46 Flaps:0 at 200 Knots
10:01 Wind:010º@032 Knots Heading: 275º Ground Speed: 365 Knots Altitude 27844 ft
10:04 TOC
10:04 Fuel Weight: 9143 Lb
10:16 Wind:347º@027 Knots Heading: 300º Ground Speed: 422 Knots Altitude 31325 ft
10:31 Wind:090º@017 Knots Heading: 252º Ground Speed: 453 Knots Altitude 31404 ft
10:46 Wind:058º@011 Knots Heading: 254º Ground Speed: 449 Knots Altitude 31414 ft
10:59 TOD
10:59 Fuel Weight: 5121 Lb
11:01 Wind:357º@026 Knots Heading: 246º Ground Speed: 433 Knots Altitude 27312 ft
11:15 Flaps:1 at 219 Knots
11:18 Flaps:2 at 201 Knots
11:20 Flaps:3 at 180 Knots
11:20 Gear Down: 179 Knots
11:20 Flaps:4 at 163 Knots
11:21 Flaps:5 at 135 Knots
11:22 TouchDown:Rate -222 ft/min Speed: 102 Knots
11:23 VATSIM:LPPT 061100Z 36011KT 9999 FEW025 14/06 Q1030
11:23 Land
11:23 Wind:008º@008 Knots
11:23 Heading: 348º
11:23 Flight Duration: 01:37
11:23 Landing Weight: 64397 Lbs
11:23 POS N38º 46´ 39´´ W009º 08´ 05´´
11:26 Parking brakeson
11:26 Block to Block Duration: 01:54
11:26 Final Fuel: 4056 Lbls
11:26 Spent Fuel: 8044 Lbls
11:26 Flight Length: 283 NM
11:26 TOD Land Length: 72 NM

Exportar CSV

Powered by Drupal - Modified by Danger4k